Metar z połowy godziny Komunikat METAR ze strony awiacja.imgw.pl Metar G30 EPLB METAR EPLB 231230Z VRB03KT CAVOK 19/06 Q1013 =